Time;durP1;ratioP1;P1;durP2;ratioP2;P2;SDS_P1;SDS_P2;PMS_P1;PMS_P2;Temp;Humidity;BMP_temperature;BMP_pressure;BME280_temperature;BME280_humidity;BME280_pressure;Samples;Min_cycle;Max_cycle;Signal;HPM_P1;HPM_P2
2022/08/06 00:00:00;;;;;;;10.13;9.23;;;;;;;29.23;49.37;101201.66;1682612;82;21008;-52
2022/08/06 00:02:29;;;;;;;9.60;8.80;;;;;;;29.23;49.59;101202.14;1682645;83;21075;-49
2022/08/06 00:04:57;;;;;;;10.53;9.63;;;;;;;29.20;49.63;101195.73;1682478;83;20976;-51
2022/08/06 00:07:25;;;;;;;10.55;9.70;;;;;;;29.19;49.66;101195.38;1682624;83;21011;-51
2022/08/06 00:09:53;;;;;;;10.38;9.40;;;;;;;29.17;49.91;101197.34;1682304;83;21564;-50
2022/08/06 00:12:20;;;;;;;10.78;9.78;;;;;;;29.13;49.88;101202.13;1684453;83;21016;-54
2022/08/06 00:14:47;;;;;;;11.43;10.30;;;;;;;29.12;50.07;101199.59;1682246;83;21110;-49
2022/08/06 00:17:13;;;;;;;11.30;10.28;;;;;;;29.12;50.12;101202.27;1684587;84;21077;-50
2022/08/06 00:19:40;;;;;;;11.88;10.68;;;;;;;29.13;50.23;101197.25;1685562;84;21552;-56
2022/08/06 00:22:07;;;;;;;11.78;10.78;;;;;;;29.13;50.07;101193.23;1685134;83;21532;-50
2022/08/06 00:24:35;;;;;;;12.25;11.15;;;;;;;29.12;49.52;101194.23;1683950;84;21079;-50
2022/08/06 00:27:03;;;;;;;11.43;10.43;;;;;;;29.10;49.44;101193.53;1682340;83;21071;-52
2022/08/06 00:29:31;;;;;;;12.05;10.95;;;;;;;29.08;49.48;101196.84;1682737;83;21040;-49
2022/08/06 00:31:57;;;;;;;11.05;10.05;;;;;;;29.04;49.34;101199.45;1682402;83;21055;-51
2022/08/06 00:34:24;;;;;;;10.82;9.93;;;;;;;28.99;49.70;101197.19;1721174;81;21507;-51
2022/08/06 00:36:51;;;;;;;11.35;10.35;;;;;;;28.95;49.74;101196.60;1736216;81;20996;-50
2022/08/06 00:39:17;;;;;;;12.07;10.98;;;;;;;28.91;49.79;101196.53;1742181;82;21078;-52
2022/08/06 00:41:44;;;;;;;11.08;10.08;;;;;;;28.90;49.91;101198.02;1739089;81;21491;-50
2022/08/06 00:44:11;;;;;;;11.88;10.88;;;;;;;28.86;49.83;101194.78;1734589;81;21050;-49
2022/08/06 00:46:38;;;;;;;12.20;11.10;;;;;;;28.83;49.73;101205.77;1748428;80;20999;-51
2022/08/06 00:49:05;;;;;;;11.48;10.48;;;;;;;28.78;49.79;101216.06;1747525;80;21074;-50
2022/08/06 00:51:34;;;;;;;11.28;10.28;;;;;;;28.75;49.93;101216.81;1732201;81;21062;-49
2022/08/06 00:54:01;;;;;;;10.85;9.85;;;;;;;28.72;49.93;101210.41;1730962;81;21046;-53
2022/08/06 00:56:27;;;;;;;11.50;10.43;;;;;;;28.69;49.92;101214.20;1699987;84;21014;-53
2022/08/06 00:58:55;;;;;;;11.93;10.93;;;;;;;28.66;50.05;101214.50;1687256;83;21087;-52
2022/08/06 01:01:22;;;;;;;12.55;11.50;;;;;;;28.65;49.88;101210.11;1683743;84;21075;-49
2022/08/06 01:03:48;;;;;;;12.55;11.45;;;;;;;28.63;49.80;101217.44;1687711;83;21047;-51
2022/08/06 01:06:15;;;;;;;12.10;11.00;;;;;;;28.59;49.85;101214.68;1686399;84;21063;-53
2022/08/06 01:08:42;;;;;;;11.40;10.43;;;;;;;28.55;49.81;101211.89;1684846;83;21004;-49
2022/08/06 01:11:10;;;;;;;11.50;10.50;;;;;;;28.52;49.85;101222.86;1684837;83;21032;-48
2022/08/06 01:13:37;;;;;;;12.63;11.63;;;;;;;28.50;49.95;101215.45;1685068;83;21051;-49
2022/08/06 01:16:30;;;;;;;11.90;10.90;;;;;;;28.48;50.14;101217.42;1684904;83;21075;-51
2022/08/06 01:19:21;;;;;;;12.82;11.10;;;;;;;28.48;50.12;101223.30;1694117;83;21519;-50
2022/08/06 01:22:46;;;;;;;11.12;10.23;;;;;;;28.46;49.96;101223.41;1683966;83;21728;-50
2022/08/06 01:25:39;;;;;;;12.20;11.12;;;;;;;28.44;50.09;101224.04;1677708;83;21023;-51
2022/08/06 01:28:13;;;;;;;15.53;11.05;;;;;;;28.39;50.40;101227.63;1685326;84;21050;-49
2022/08/06 01:30:48;;;;;;;11.57;10.58;;;;;;;28.34;50.70;101227.18;1631158;87;21036;-50
2022/08/06 01:33:29;;;;;;;12.60;10.90;;;;;;;28.30;50.80;101231.11;1617979;86;21115;-49
2022/08/06 01:35:58;;;;;;;;;;;;;;;28.26;51.08;101224.34;1629774;86;21142;-50
2022/08/06 01:38:44;;;;;;;12.58;11.48;;;;;;;28.24;51.09;101222.28;1628637;86;20466;-54
2022/08/06 01:41:38;;;;;;;12.28;11.18;;;;;;;28.22;51.00;101224.73;1580296;89;21107;-53
2022/08/06 01:43:42;;;;;;;12.30;11.30;;;;;;;28.19;50.73;101232.56;1592855;89;21575;-52
2022/08/06 01:46:09;;;;;;;12.68;11.57;;;;;;;28.12;50.72;101225.56;1595903;88;21130;-48
2022/08/06 01:48:36;;;;;;;11.65;10.55;;;;;;;28.09;50.98;101219.61;1585255;88;21154;-49
2022/08/06 01:51:03;;;;;;;11.75;10.72;;;;;;;28.07;51.10;101213.55;1575738;89;21616;-50
2022/08/06 01:53:34;;;;;;;12.33;11.22;;;;;;;28.04;51.13;101211.16;1552356;91;21099;-51
2022/08/06 01:56:02;;;;;;;12.70;11.50;;;;;;;28.02;51.26;101210.44;1588075;88;21524;-52
2022/08/06 01:58:33;;;;;;;12.55;11.45;;;;;;;28.03;51.15;101229.51;1597913;89;21066;-50
2022/08/06 02:01:03;;;;;;;13.32;12.18;;;;;;;28.00;51.26;101219.09;1577549;91;21105;-49
2022/08/06 02:03:43;;;;;;;12.40;11.30;;;;;;;27.98;51.22;101223.24;1576049;89;21558;-48
2022/08/06 02:06:12;;;;;;;12.73;11.53;;;;;;;27.95;51.16;101230.63;1533343;92;21567;-49
2022/08/06 02:08:40;;;;;;;12.25;11.15;;;;;;;27.92;51.33;101228.24;1533670;92;21095;-54
2022/08/06 02:11:09;;;;;;;12.82;11.63;;;;;;;27.91;51.42;101217.17;1514440;93;21160;-52
2022/08/06 02:13:36;;;;;;;12.75;11.53;;;;;;;27.91;51.13;101215.83;1533628;92;21147;-50
2022/08/06 02:16:04;;;;;;;13.55;11.20;;;;;;;27.90;51.08;101224.85;1514191;92;21123;-50
2022/08/06 02:18:35;;;;;;;12.35;11.35;;;;;;;27.88;51.30;101227.63;1532922;92;21084;-53
2022/08/06 02:21:06;;;;;;;12.47;11.40;;;;;;;27.84;51.28;101222.71;1533098;92;22062;-53
2022/08/06 02:23:33;;;;;;;12.18;10.95;;;;;;;27.80;51.37;101226.63;1496590;95;21124;-53
2022/08/06 02:26:00;;;;;;;13.05;11.85;;;;;;;27.73;51.53;101226.30;1470242;97;21567;-53
2022/08/06 02:28:27;;;;;;;12.10;11.00;;;;;;;27.69;51.64;101218.67;1562603;91;21065;-52
2022/08/06 02:30:56;;;;;;;12.33;11.03;;;;;;;27.67;51.72;101223.30;1563367;91;21038;-55
2022/08/06 02:33:22;;;;;;;13.22;12.03;;;;;;;27.66;51.83;101223.78;1564544;91;21103;-51
2022/08/06 02:36:06;;;;;;;12.53;11.33;;;;;;;27.66;51.90;101221.59;1563899;91;21111;-51
2022/08/06 02:38:40;;;;;;;12.30;11.20;;;;;;;27.66;51.86;101222.93;1564795;91;21018;-51
2022/08/06 02:41:13;;;;;;;13.08;11.70;;;;;;;27.66;52.00;101222.93;1564115;91;21054;-53
2022/08/06 02:43:40;;;;;;;13.03;11.83;;;;;;;27.65;52.08;101219.91;1575491;90;21148;-49
2022/08/06 02:46:15;;;;;;;12.40;11.35;;;;;;;27.63;52.11;101219.20;1576653;90;21041;-51
2022/08/06 02:48:53;;;;;;;12.82;11.68;;;;;;;27.60;52.27;101210.09;1565117;91;21134;-49
2022/08/06 02:51:30;;;;;;;12.68;11.50;;;;;;;27.59;52.47;101212.42;1507502;94;21171;-53
2022/08/06 02:54:09;;;;;;;12.03;10.98;;;;;;;27.57;52.62;101224.59;1535857;92;21124;-50
2022/08/06 02:56:37;;;;;;;12.05;10.80;;;;;;;27.55;52.76;101213.66;1557055;91;21143;-52
2022/08/06 02:59:04;;;;;;;12.15;11.10;;;;;;;27.55;52.83;101217.19;1583365;90;21099;-49
2022/08/06 03:01:34;;;;;;;13.80;12.50;;;;;;;27.59;52.94;101228.46;1575142;90;21090;-53
2022/08/06 03:04:02;;;;;;;13.55;12.35;;;;;;;27.60;52.95;101235.48;1549079;92;21073;-50
2022/08/06 03:06:33;;;;;;;12.60;11.55;;;;;;;27.63;52.91;101233.91;1525147;93;21141;-51
2022/08/06 03:09:02;;;;;;;12.35;11.30;;;;;;;27.65;52.97;101239.48;1495211;95;21646;-55
2022/08/06 03:11:34;;;;;;;12.47;11.43;;;;;;;27.69;53.00;101233.37;1500931;95;21197;-51
2022/08/06 03:14:02;;;;;;;11.85;10.70;;;;;;;27.72;52.94;101239.81;1508469;94;21133;-49
2022/08/06 03:16:37;;;;;;;13.43;12.23;;;;;;;27.74;53.02;101243.20;1494285;95;21136;-52
2022/08/06 03:19:04;;;;;;;12.60;11.50;;;;;;;27.75;53.02;101242.20;1513624;92;21180;-52
2022/08/06 03:21:31;;;;;;;11.83;10.75;;;;;;;27.74;53.08;101250.71;1534295;92;21029;-52
2022/08/06 03:23:58;;;;;;;11.28;10.28;;;;;;;27.73;53.08;101250.85;1601350;89;21103;-53
2022/08/06 03:26:26;;;;;;;11.93;10.82;;;;;;;27.72;53.08;101245.16;1596262;89;21106;-49
2022/08/06 03:28:55;;;;;;;12.68;11.20;;;;;;;27.68;53.11;101249.90;1606177;88;21037;-52
2022/08/06 03:31:23;;;;;;;13.22;12.03;;;;;;;27.68;52.99;101257.06;1607971;88;21592;-50
2022/08/06 03:33:51;;;;;;;12.93;11.80;;;;;;;27.68;52.92;101255.73;1638477;87;21055;-49
2022/08/06 03:36:18;;;;;;;12.60;11.48;;;;;;;27.69;53.02;101253.43;1637952;87;21064;-52
2022/08/06 03:38:50;;;;;;;11.90;10.80;;;;;;;27.69;53.12;101245.41;1626815;87;21097;-50
2022/08/06 03:41:17;;;;;;;12.58;11.48;;;;;;;27.71;53.28;101243.45;1588832;89;21539;-50
2022/08/06 03:43:43;;;;;;;12.55;11.25;;;;;;;27.72;53.36;101247.84;1652330;86;21103;-52
2022/08/06 03:46:10;;;;;;;12.15;10.95;;;;;;;27.76;53.34;101245.25;1647859;86;21049;-55
2022/08/06 03:48:39;;;;;;;12.30;11.30;;;;;;;27.78;53.28;101246.80;1654991;86;21041;-50
2022/08/06 03:51:11;;;;;;;11.30;10.10;;;;;;;27.79;53.27;101237.81;1651289;85;21465;-49
2022/08/06 03:53:38;;;;;;;;;;;;;;;27.87;53.33;101234.46;1631114;87;21616;-52
2022/08/06 03:56:07;;;;;;;10.05;9.25;;;;;;;27.96;53.28;101239.06;1636645;87;20127;-49
2022/08/06 03:58:33;;;;;;;11.85;10.75;;;;;;;28.01;53.23;101240.34;1636148;87;21092;-52
2022/08/06 04:01:03;;;;;;;12.23;11.15;;;;;;;28.07;53.19;101236.28;1658163;85;21034;-50
2022/08/06 04:03:31;;;;;;;11.68;10.68;;;;;;;28.12;53.15;101235.41;1671617;85;21805;-50
2022/08/06 04:05:58;;;;;;;11.90;10.90;;;;;;;28.16;53.00;101229.66;1677714;85;21061;-53
2022/08/06 04:08:25;;;;;;;11.55;10.55;;;;;;;28.19;52.94;101247.28;1671389;85;21052;-50
2022/08/06 04:10:52;;;;;;;10.82;9.88;;;;;;;28.19;52.96;101245.43;1673274;85;21570;-49
2022/08/06 04:13:22;;;;;;;12.05;10.95;;;;;;;28.19;53.11;101244.61;1670798;85;21061;-51
2022/08/06 04:15:49;;;;;;;12.70;11.60;;;;;;;28.21;53.25;101243.98;1664074;84;21633;-50
2022/08/06 04:18:20;;;;;;;11.73;10.82;;;;;;;28.23;53.24;101239.83;1671831;85;21053;-51
2022/08/06 04:20:50;;;;;;;11.95;10.85;;;;;;;28.23;53.30;101239.34;1668856;85;21581;-49
2022/08/06 04:23:17;;;;;;;11.93;10.93;;;;;;;28.24;53.25;101245.03;1674822;85;21054;-50
2022/08/06 04:25:49;;;;;;;11.85;10.70;;;;;;;28.26;53.21;101247.56;1670855;85;21137;-54
2022/08/06 04:28:16;;;;;;;11.83;10.82;;;;;;;28.26;53.24;101251.09;1674564;85;21010;-49
2022/08/06 04:30:43;;;;;;;12.28;10.82;;;;;;;28.27;53.24;101250.13;1674376;85;21637;-50
2022/08/06 04:33:13;;;;;;;12.75;10.98;;;;;;;28.28;53.24;101249.13;1674264;85;21022;-50
2022/08/06 04:35:40;;;;;;;12.63;11.53;;;;;;;28.29;53.04;101242.81;1656597;85;21586;-49
2022/08/06 04:38:10;;;;;;;12.10;11.03;;;;;;;28.32;52.66;101247.88;1693218;84;21007;-53
2022/08/06 04:40:37;;;;;;;12.33;11.12;;;;;;;28.29;52.76;101248.16;1694839;84;21011;-50
2022/08/06 04:43:06;;;;;;;11.45;10.45;;;;;;;28.30;52.80;101251.66;1695085;83;21091;-52
2022/08/06 04:45:34;;;;;;;11.68;10.72;;;;;;;28.28;52.81;101253.14;1693199;83;21026;-53
2022/08/06 04:48:03;;;;;;;12.23;11.22;;;;;;;28.28;52.89;101249.13;1698015;84;21047;-49
2022/08/06 04:50:31;;;;;;;12.33;11.22;;;;;;;28.25;52.74;101248.08;1708134;80;22409;-49
2022/08/06 04:53:15;;;;;;;12.80;11.70;;;;;;;28.23;52.60;101248.70;1748604;81;21031;-52
2022/08/06 04:55:43;;;;;;;12.00;10.98;;;;;;;28.21;52.73;101250.67;1732169;82;20991;-52
2022/08/06 04:58:13;;;;;;;11.78;10.72;;;;;;;28.13;52.94;101250.50;1734842;81;21022;-52
2022/08/06 05:00:44;;;;;;;12.65;11.50;;;;;;;28.21;52.71;101250.67;1727579;81;20971;-49
2022/08/06 05:03:10;;;;;;;13.17;11.97;;;;;;;28.24;52.44;101247.70;1730822;81;21533;-49
2022/08/06 05:05:43;;;;;;;12.95;11.83;;;;;;;28.23;52.41;101248.70;1730561;81;21018;-52
2022/08/06 05:08:09;;;;;;;13.13;12.03;;;;;;;28.22;52.51;101249.67;1729152;81;21058;-52
2022/08/06 05:10:50;;;;;;;11.73;10.63;;;;;;;28.21;52.45;101253.34;1731306;81;21027;-51
2022/08/06 05:13:16;;;;;;;12.63;11.50;;;;;;;28.21;52.51;101261.38;1733456;81;21538;-51
2022/08/06 05:15:46;;;;;;;12.43;11.18;;;;;;;28.21;52.55;101258.70;1733762;81;21089;-52
2022/08/06 05:18:24;;;;;;;11.78;10.70;;;;;;;28.21;52.69;101261.86;1732195;81;21030;-51
2022/08/06 05:20:53;;;;;;;13.13;11.93;;;;;;;28.24;52.72;101263.77;1738484;81;21026;-51
2022/08/06 05:23:27;;;;;;;12.60;11.48;;;;;;;28.26;52.76;101260.95;1731674;81;21086;-53
2022/08/06 05:25:54;;;;;;;12.03;10.82;;;;;;;28.28;52.83;101261.66;1704426;82;21559;-49
2022/08/06 05:28:21;;;;;;;12.70;11.50;;;;;;;28.29;52.81;101258.88;1708918;83;21040;-57
2022/08/06 05:30:50;;;;;;;12.35;11.25;;;;;;;28.35;52.79;101261.01;1703479;82;21052;-52
2022/08/06 05:33:30;;;;;;;12.47;11.35;;;;;;;28.40;52.80;101266.78;1704732;82;21119;-54
2022/08/06 05:35:59;;;;;;;13.10;11.90;;;;;;;28.45;52.71;101261.89;1689666;83;21045;-53
2022/08/06 05:38:27;;;;;;;13.15;11.95;;;;;;;28.54;52.43;101263.73;1684352;83;21099;-50
2022/08/06 05:40:56;;;;;;;13.43;12.28;;;;;;;28.65;52.16;101253.44;1683288;83;21660;-49
2022/08/06 05:43:22;;;;;;;13.15;11.95;;;;;;;28.79;51.81;101260.59;1683093;83;21042;-53
2022/08/06 05:45:52;;;;;;;13.83;12.35;;;;;;;28.91;51.51;101251.45;1682406;83;21600;-51
2022/08/06 05:48:20;;;;;;;14.03;12.80;;;;;;;29.06;51.05;101262.61;1683354;83;21533;-52
2022/08/06 05:50:52;;;;;;;14.33;12.93;;;;;;;29.19;50.63;101259.70;1657765;84;21051;-55
2022/08/06 05:53:32;;;;;;;15.45;13.88;;;;;;;29.28;50.56;101258.87;1686405;83;21046;-52
2022/08/06 05:56:16;;;;;;;14.80;13.40;;;;;;;29.37;50.30;101254.83;1683039;83;21534;-54
2022/08/06 05:58:51;;;;;;;15.25;13.88;;;;;;;29.47;50.05;101256.19;1684247;83;21050;-52
2022/08/06 06:01:18;;;;;;;14.73;13.35;;;;;;;29.55;49.97;101257.14;1654673;85;21058;-51
2022/08/06 06:03:44;;;;;;;15.43;13.22;;;;;;;29.65;49.95;101261.17;1651994;85;21058;-54
2022/08/06 06:06:11;;;;;;;13.28;11.97;;;;;;;29.81;49.70;101259.26;1652992;85;21118;-52
2022/08/06 06:08:38;;;;;;;13.28;12.20;;;;;;;29.99;49.66;101259.70;1650853;86;21147;-51
2022/08/06 06:11:07;;;;;;;13.30;12.20;;;;;;;30.19;49.34;101259.16;1650002;85;21039;-49
2022/08/06 06:13:34;;;;;;;12.63;11.40;;;;;;;30.36;49.17;101261.94;1644206;85;21070;-52
2022/08/06 06:16:27;;;;;;;11.55;10.50;;;;;;;30.52;49.11;101264.00;1680697;84;21078;-49
2022/08/06 06:19:11;;;;;;;11.25;10.15;;;;;;;30.63;48.89;101268.30;1644719;86;21120;-51
2022/08/06 06:22:19;;;;;;;12.07;10.98;;;;;;;30.67;48.95;101269.69;1679967;83;21037;-53
2022/08/06 06:24:56;;;;;;;11.18;10.18;;;;;;;30.68;48.86;101270.05;1661295;86;21507;-52
2022/08/06 06:27:38;;;;;;;11.18;10.18;;;;;;;30.64;49.06;101257.91;1658433;86;20999;-52
2022/08/06 06:30:07;;;;;;;11.57;10.40;;;;;;;30.55;49.41;101258.31;1658909;86;21495;-50
2022/08/06 06:32:54;;;;;;;11.18;10.18;;;;;;;30.40;49.91;101258.45;1647006;86;21013;-53
2022/08/06 06:35:32;;;;;;;11.22;10.13;;;;;;;30.35;50.09;101256.72;1658733;86;20987;-49
2022/08/06 06:38:30;;;;;;;11.08;10.10;;;;;;;30.32;50.15;101263.22;1658840;86;21058;-51
2022/08/06 06:41:11;;;;;;;13.98;9.50;;;;;;;30.57;49.70;101263.52;1638652;86;21046;-50
2022/08/06 06:43:55;;;;;;;12.18;10.98;;;;;;;30.61;49.52;101270.28;1638559;86;21065;-51
2022/08/06 06:46:27;;;;;;;11.18;10.15;;;;;;;30.61;49.52;101278.34;1639120;86;21057;-51
2022/08/06 06:48:57;;;;;;;11.15;10.18;;;;;;;30.63;49.51;101275.02;1634974;86;21559;-52
2022/08/06 06:51:33;;;;;;;16.50;10.35;;;;;;;30.66;49.49;101271.55;1654028;86;21053;-51
2022/08/06 06:54:00;;;;;;;9.90;9.13;;;;;;;30.68;49.51;101270.91;1654012;86;21053;-50
2022/08/06 06:56:31;;;;;;;10.88;9.98;;;;;;;30.73;49.40;101274.48;1652845;86;21101;-51
2022/08/06 06:59:01;;;;;;;;;;;;;;;30.78;49.17;101277.55;1648479;86;21610;-53
2022/08/06 07:01:30;;;;;;;12.25;9.43;;;;;;;30.82;49.01;101269.53;1652584;86;20116;-51
2022/08/06 07:03:57;;;;;;;10.10;9.20;;;;;;;30.86;48.92;101280.36;1653172;86;21030;-51
2022/08/06 07:06:24;;;;;;;10.63;9.08;;;;;;;30.87;48.88;101276.69;1653824;86;21065;-52
2022/08/06 07:08:51;;;;;;;8.73;7.80;;;;;;;30.90;48.67;101273.69;1653884;86;21550;-53
2022/08/06 07:11:21;;;;;;;9.48;7.70;;;;;;;30.94;48.34;101271.04;1652137;86;21109;-51
2022/08/06 07:13:49;;;;;;;8.45;7.75;;;;;;;31.00;48.24;101277.15;1650913;86;21099;-51
2022/08/06 07:16:21;;;;;;;9.43;8.50;;;;;;;31.10;48.43;101284.16;1675564;82;21103;-56
2022/08/06 07:18:49;;;;;;;9.75;8.85;;;;;;;31.24;48.47;101282.80;1729544;81;21032;-52
2022/08/06 07:21:18;;;;;;;9.20;8.28;;;;;;;31.39;48.16;101275.89;1735718;81;21070;-52
2022/08/06 07:23:45;;;;;;;9.55;8.65;;;;;;;31.52;47.84;101272.31;1698574;84;21007;-50
2022/08/06 07:26:13;;;;;;;9.25;8.45;;;;;;;31.61;47.51;101280.81;1698277;84;20998;-53
2022/08/06 07:28:39;;;;;;;13.38;9.08;;;;;;;31.65;47.45;101278.15;1694456;84;21014;-52
2022/08/06 07:31:06;;;;;;;9.13;8.35;;;;;;;31.71;47.48;101276.67;1722660;81;21016;-50
2022/08/06 07:33:34;;;;;;;9.68;8.88;;;;;;;31.78;47.28;101275.88;1731954;81;21547;-53
2022/08/06 07:36:01;;;;;;;9.98;8.93;;;;;;;31.85;47.27;101268.88;1731575;81;20978;-52
2022/08/06 07:38:28;;;;;;;9.73;8.48;;;;;;;31.90;47.10;101261.16;1732732;81;21035;-51
2022/08/06 07:41:01;;;;;;;8.93;8.13;;;;;;;31.92;47.14;101262.36;1734958;81;21058;-51
2022/08/06 07:43:45;;;;;;;9.68;8.70;;;;;;;31.90;47.08;101263.84;1735741;82;20983;-53
2022/08/06 07:46:16;;;;;;;9.80;8.80;;;;;;;31.88;47.23;101269.89;1722155;81;21019;-50
2022/08/06 07:48:59;;;;;;;9.20;8.03;;;;;;;31.89;47.53;101266.20;1700364;84;21066;-52
2022/08/06 07:51:31;;;;;;;9.98;8.80;;;;;;;31.90;47.45;101271.09;1688053;83;21169;-55
2022/08/06 07:53:57;;;;;;;9.23;8.28;;;;;;;31.92;47.45;101267.75;1692166;83;21020;-53
2022/08/06 07:56:25;;;;;;;9.18;8.20;;;;;;;31.93;47.28;101271.65;1690650;83;21058;-52
2022/08/06 07:58:52;;;;;;;10.70;8.73;;;;;;;31.92;47.37;101265.88;1688993;84;21118;-50
2022/08/06 08:01:19;;;;;;;8.70;7.72;;;;;;;31.91;47.48;101277.66;1688331;83;21087;-52
2022/08/06 08:06:31;;;;;;;8.50;7.70;;;;;;;31.80;47.73;101271.17;1682637;84;21062;-56
2022/08/06 08:09:09;;;;;;;8.35;7.55;;;;;;;31.78;47.97;101267.80;1690731;83;21551;-53
2022/08/06 08:11:40;;;;;;;9.03;7.12;;;;;;;31.77;47.93;101268.82;1690326;83;21610;-50
2022/08/06 08:14:04;;;;;;;7.90;7.17;;;;;;;31.73;48.22;101267.45;1692294;84;21098;-52
2022/08/06 08:16:32;;;;;;;8.08;7.28;;;;;;;31.73;48.27;101267.45;1690121;83;21149;-49
2022/08/06 08:18:58;;;;;;;17.07;7.42;;;;;;;31.75;48.35;101269.48;1689348;84;21023;-52
2022/08/06 08:21:25;;;;;;;7.45;6.78;;;;;;;31.79;48.43;101272.20;1668343;84;21086;-55
2022/08/06 08:23:52;;;;;;;8.18;7.42;;;;;;;31.83;48.21;101272.23;1691930;83;21054;-54
2022/08/06 08:26:19;;;;;;;7.83;7.12;;;;;;;31.86;48.31;101271.89;1692982;83;21062;-53
2022/08/06 08:28:46;;;;;;;8.20;7.40;;;;;;;31.90;48.35;101273.27;1691725;83;21019;-54
2022/08/06 08:31:13;;;;;;;7.85;6.55;;;;;;;31.93;48.22;101275.69;1693601;83;21066;-53
2022/08/06 08:33:40;;;;;;;20.20;7.47;;;;;;;31.96;48.24;101267.27;1695620;84;20998;-51
2022/08/06 08:36:09;;;;;;;7.62;6.90;;;;;;;32.00;48.21;101275.41;1694844;83;21023;-53
2022/08/06 08:38:36;;;;;;;8.43;7.62;;;;;;;32.04;48.03;101275.44;1692424;83;21058;-50
2022/08/06 08:41:13;;;;;;;7.20;6.60;;;;;;;32.08;47.94;101271.42;1693706;83;21039;-53
2022/08/06 08:43:48;;;;;;;8.83;7.22;;;;;;;32.13;48.04;101273.61;1709186;83;21045;-49
2022/08/06 08:46:15;;;;;;;8.65;6.97;;;;;;;32.19;47.90;101276.19;1714789;83;21009;-50
2022/08/06 08:48:42;;;;;;;7.72;6.92;;;;;;;32.22;47.65;101273.16;1713394;83;21557;-54
2022/08/06 08:51:11;;;;;;;7.97;7.22;;;;;;;32.25;47.65;101276.89;1715404;83;21078;-57
2022/08/06 08:53:48;;;;;;;7.25;6.58;;;;;;;32.24;47.62;101275.19;1708495;83;21060;-53
2022/08/06 08:56:16;;;;;;;7.85;7.10;;;;;;;32.24;47.63;101278.73;1714759;83;21061;-49
2022/08/06 08:58:42;;;;;;;12.33;7.03;;;;;;;32.26;47.64;101276.72;1714323;83;21022;-52
2022/08/06 09:01:09;;;;;;;9.15;6.97;;;;;;;32.29;47.68;101279.60;1714576;83;21050;-51
2022/08/06 09:03:39;;;;;;;7.37;6.72;;;;;;;32.33;47.75;101278.27;1713832;83;21092;-51
2022/08/06 09:06:06;;;;;;;8.63;7.05;;;;;;;32.40;47.68;101277.95;1715483;83;21052;-51
2022/08/06 09:08:33;;;;;;;7.83;7.00;;;;;;;32.48;47.48;101278.88;1714872;83;21547;-53
2022/08/06 09:11:00;;;;;;;8.20;7.50;;;;;;;32.54;47.25;101278.75;1715612;83;21030;-54
2022/08/06 09:13:27;;;;;;;8.10;7.30;;;;;;;32.59;47.02;101275.05;1715525;83;21491;-52
2022/08/06 09:15:54;;;;;;;7.87;7.17;;;;;;;32.60;46.81;101270.02;1712201;83;21041;-49
2022/08/06 09:18:21;;;;;;;10.08;7.55;;;;;;;32.62;46.87;101266.66;1715188;83;21129;-49
2022/08/06 09:20:48;;;;;;;8.43;7.25;;;;;;;32.65;46.75;101267.66;1714834;83;21019;-52
2022/08/06 09:23:16;;;;;;;7.97;7.17;;;;;;;32.65;46.82;101261.77;1712749;83;21522;-50
2022/08/06 09:25:47;;;;;;;7.62;6.90;;;;;;;32.66;46.71;101262.62;1715173;83;21062;-52
2022/08/06 09:28:36;;;;;;;7.78;7.05;;;;;;;32.67;46.61;101264.30;1712352;83;21002;-53
2022/08/06 09:31:09;;;;;;;7.12;6.53;;;;;;;32.67;46.56;101262.95;1653286;86;21114;-53
2022/08/06 09:33:39;;;;;;;8.35;6.90;;;;;;;32.65;46.52;101269.00;1657922;86;21075;-50
2022/08/06 09:36:12;;;;;;;6.55;6.05;;;;;;;32.61;46.65;101264.45;1657880;86;21025;-52
2022/08/06 09:38:48;;;;;;;7.53;6.83;;;;;;;32.62;46.72;101262.61;1657833;86;21082;-52
2022/08/06 09:41:17;;;;;;;7.40;6.67;;;;;;;32.60;46.58;101267.32;1621826;87;21087;-50
2022/08/06 09:43:46;;;;;;;7.70;6.97;;;;;;;32.34;47.41;101268.68;1613906;88;21044;-52
2022/08/06 09:46:13;;;;;;;7.42;6.72;;;;;;;32.32;47.42;101263.10;1622685;86;21633;-54
2022/08/06 09:49:00;;;;;;;10.80;6.80;;;;;;;32.58;46.76;101263.42;1625263;86;21077;-51
2022/08/06 09:51:27;;;;;;;9.08;7.25;;;;;;;32.64;46.68;101261.45;1643405;86;21649;-54
2022/08/06 09:53:58;;;;;;;7.37;6.75;;;;;;;32.71;46.52;101265.66;1646338;86;21065;-50
2022/08/06 09:56:26;;;;;;;7.45;6.58;;;;;;;32.74;46.41;101268.89;1646558;86;21539;-50
2022/08/06 09:59:00;;;;;;;7.50;6.47;;;;;;;32.77;46.24;101271.73;1646371;86;21093;-54
2022/08/06 10:01:28;;;;;;;8.68;7.60;;;;;;;32.81;46.21;101275.78;1644746;86;21070;-51
2022/08/06 10:03:57;;;;;;;6.97;6.45;;;;;;;32.83;46.10;101273.77;1643889;86;21092;-51
2022/08/06 10:06:25;;;;;;;7.62;6.85;;;;;;;32.86;46.12;101278.84;1643557;86;21110;-51
2022/08/06 10:09:08;;;;;;;8.70;7.30;;;;;;;32.86;46.26;101274.80;1643131;86;21093;-50
2022/08/06 10:11:39;;;;;;;7.55;6.85;;;;;;;32.88;45.97;101269.59;1658610;86;21103;-50
2022/08/06 10:14:27;;;;;;;7.45;6.85;;;;;;;32.90;45.81;101273.47;1628248;87;21139;-53
2022/08/06 10:17:15;;;;;;;7.65;6.95;;;;;;;32.92;45.83;101276.84;1609915;87;21099;-51
2022/08/06 10:19:47;;;;;;;7.45;6.80;;;;;;;32.94;45.81;101269.44;1628335;87;21587;-51
2022/08/06 10:22:17;;;;;;;6.62;6.12;;;;;;;32.96;45.85;101273.30;1619419;87;21078;-52
2022/08/06 10:24:49;;;;;;;7.42;6.45;;;;;;;32.97;45.76;101278.55;1627391;87;21599;-53
2022/08/06 10:27:25;;;;;;;7.55;6.80;;;;;;;32.99;45.77;101277.91;1636376;87;21078;-53
2022/08/06 10:29:54;;;;;;;7.67;6.97;;;;;;;33.04;46.00;101276.89;1644668;87;21062;-50
2022/08/06 10:32:35;;;;;;;7.28;6.65;;;;;;;33.08;45.65;101274.73;1643879;86;21112;-50
2022/08/06 10:35:04;;;;;;;7.40;6.70;;;;;;;33.11;45.83;101275.23;1542217;91;21613;-51
2022/08/06 10:37:35;;;;;;;7.25;6.55;;;;;;;33.14;45.69;101268.67;1542196;91;21064;-50
2022/08/06 10:40:03;;;;;;;7.45;6.70;;;;;;;33.17;45.59;101267.83;1531786;92;21084;-51
2022/08/06 10:42:30;;;;;;;6.65;6.05;;;;;;;33.18;45.75;101260.06;1530345;92;21092;-51
2022/08/06 10:44:56;;;;;;;7.03;6.33;;;;;;;33.22;45.59;101259.24;1522702;92;21092;-50
2022/08/06 10:47:23;;;;;;;7.40;6.80;;;;;;;33.25;45.43;101258.39;1531696;92;21679;-54
2022/08/06 10:49:49;;;;;;;7.55;6.28;;;;;;;33.27;45.30;101260.42;1510557;92;21088;-56
2022/08/06 10:52:17;;;;;;;6.70;6.20;;;;;;;33.27;45.08;101260.42;1536928;91;21160;-56
2022/08/06 10:54:43;;;;;;;7.78;6.12;;;;;;;33.22;45.17;101259.24;1541116;91;21121;-53
2022/08/06 10:57:12;;;;;;;7.62;6.58;;;;;;;33.17;45.32;101261.58;1539769;91;21542;-53
2022/08/06 10:59:40;;;;;;;7.25;6.50;;;;;;;33.11;45.42;101260.41;1539109;91;21597;-50
2022/08/06 11:02:34;;;;;;;6.20;5.70;;;;;;;33.07;45.63;101259.55;1493443;95;21090;-54
2022/08/06 11:05:06;;;;;;;7.25;6.00;;;;;;;33.04;45.81;101266.11;1493612;95;21089;-51
2022/08/06 11:08:14;;;;;;;7.17;5.78;;;;;;;32.99;45.90;101257.69;1496792;93;21068;-51
2022/08/06 11:10:59;;;;;;;6.15;5.65;;;;;;;33.00;45.99;101258.02;1504075;93;21095;-53
2022/08/06 11:13:33;;;;;;;6.17;5.65;;;;;;;33.01;45.89;101254.82;1570148;90;21590;-52
2022/08/06 11:16:00;;;;;;;6.37;5.83;;;;;;;33.00;46.09;101251.27;1564233;89;21062;-54
2022/08/06 11:18:27;;;;;;;6.97;6.22;;;;;;;33.01;45.97;101250.28;1564321;89;21665;-50
2022/08/06 11:20:54;;;;;;;6.55;5.87;;;;;;;33.03;46.14;101249.61;1587179;89;21032;-52
2022/08/06 11:23:27;;;;;;;8.88;5.60;;;;;;;33.07;46.02;101252.31;1546134;90;21088;-51
2022/08/06 11:25:58;;;;;;;6.87;6.17;;;;;;;33.09;46.03;101248.09;1572721;90;21138;-50
2022/08/06 11:28:36;;;;;;;6.80;5.90;;;;;;;33.11;45.74;101246.92;1562226;89;21138;-50
2022/08/06 11:31:05;;;;;;;6.78;6.28;;;;;;;33.11;45.89;101253.66;1599876;87;21630;-51
2022/08/06 11:33:41;;;;;;;7.75;6.25;;;;;;;33.14;46.07;101253.31;1623808;86;21057;-54
2022/08/06 11:36:12;;;;;;;6.60;6.08;;;;;;;33.15;45.78;101253.67;1621151;86;21078;-51